createdAt,value
2022-08-08T00:01:10.606Z,11.57
2022-08-08T00:03:53.209Z,11.53
2022-08-08T00:06:45.830Z,11.52
2022-08-08T00:09:23.217Z,11.47
2022-08-08T00:12:08.026Z,11.41
2022-08-08T00:15:00.319Z,11.29
2022-08-08T00:17:58.614Z,11.22
2022-08-08T00:20:39.972Z,11.19
2022-08-08T00:23:17.147Z,11.14
2022-08-08T00:25:51.715Z,11.13
2022-08-08T00:28:35.457Z,11.11
2022-08-08T00:32:21.371Z,11.02
2022-08-08T00:34:57.613Z,11.06
2022-08-08T00:37:47.743Z,11.02
2022-08-08T00:41:08.927Z,11.01
2022-08-08T00:44:12.587Z,11.00
2022-08-08T00:47:14.111Z,11.01
2022-08-08T00:50:29.206Z,11.03
2022-08-08T00:53:15.549Z,11.08
2022-08-08T00:56:29.985Z,11.12
2022-08-08T00:59:46.065Z,11.12
2022-08-08T01:03:59.895Z,11.04
2022-08-08T01:06:27.936Z,10.99
2022-08-08T01:09:36.529Z,10.91
2022-08-08T01:12:43.384Z,10.88
2022-08-08T01:15:54.257Z,10.87
2022-08-08T01:18:54.085Z,10.80
2022-08-08T01:22:10.261Z,10.73
2022-08-08T01:25:01.101Z,10.66
2022-08-08T01:28:11.557Z,10.62
2022-08-08T01:32:13.109Z,10.63
2022-08-08T01:34:58.344Z,10.59
2022-08-08T01:38:11.458Z,10.56
2022-08-08T01:41:00.358Z,10.58
2022-08-08T01:43:45.498Z,10.54
2022-08-08T01:46:52.632Z,10.48
2022-08-08T01:49:47.530Z,10.43
2022-08-08T01:53:06.544Z,10.44
2022-08-08T01:56:27.381Z,10.38
2022-08-08T01:58:47.103Z,10.33
2022-08-08T02:01:59.667Z,10.34
2022-08-08T02:04:30.025Z,10.32
2022-08-08T02:07:05.074Z,10.29
2022-08-08T02:10:03.966Z,10.27
2022-08-08T02:12:51.514Z,10.24
2022-08-08T02:15:34.765Z,10.18
2022-08-08T02:18:14.365Z,10.08
2022-08-08T02:21:08.254Z,10.08
2022-08-08T02:23:45.357Z,10.07
2022-08-08T02:26:22.902Z,10.07
2022-08-08T02:29:14.799Z,10.09
2022-08-08T02:32:08.610Z,10.13
2022-08-08T02:35:10.989Z,10.18
2022-08-08T02:38:25.631Z,10.20
2022-08-08T02:41:59.493Z,10.16
2022-08-08T02:44:39.318Z,10.11
2022-08-08T02:48:00.880Z,10.11
2022-08-08T02:51:12.424Z,10.08
2022-08-08T02:54:23.115Z,10.10
2022-08-08T02:57:40.467Z,10.06
2022-08-08T03:00:50.700Z,10.03
2022-08-08T03:05:03.757Z,10.01
2022-08-08T03:07:41.411Z,10.06
2022-08-08T03:11:13.810Z,10.11
2022-08-08T03:16:00.295Z,10.13
2022-08-08T03:17:25.761Z,10.11
2022-08-08T03:20:10.459Z,10.12
2022-08-08T03:22:56.007Z,10.13
2022-08-08T03:25:35.715Z,10.17
2022-08-08T03:28:09.485Z,10.23
2022-08-08T03:30:40.042Z,10.26
2022-08-08T03:33:56.154Z,10.29
2022-08-08T03:36:16.064Z,10.27
2022-08-08T03:38:58.299Z,10.27
2022-08-08T03:42:26.773Z,10.28
2022-08-08T03:44:35.656Z,10.34
2022-08-08T03:47:19.531Z,10.40
2022-08-08T03:50:00.360Z,10.44
2022-08-08T03:52:37.328Z,10.47
2022-08-08T03:55:55.761Z,10.54
2022-08-08T03:58:32.449Z,10.57
2022-08-08T04:01:23.545Z,10.60
2022-08-08T04:03:58.572Z,10.61
2022-08-08T04:06:34.184Z,10.64
2022-08-08T04:09:11.460Z,10.66
2022-08-08T04:11:58.602Z,10.68
2022-08-08T04:14:44.957Z,10.68
2022-08-08T04:17:45.863Z,10.75
2022-08-08T04:20:05.611Z,10.80
2022-08-08T04:22:38.468Z,10.87
2022-08-08T04:25:13.165Z,10.91
2022-08-08T04:28:02.242Z,10.94
2022-08-08T04:30:44.476Z,10.99
2022-08-08T04:33:15.987Z,11.03
2022-08-08T04:35:50.868Z,11.07
2022-08-08T04:38:22.271Z,11.13
2022-08-08T04:40:55.072Z,11.17
2022-08-08T04:43:32.502Z,11.26
2022-08-08T04:46:20.190Z,11.35
2022-08-08T04:48:52.379Z,11.41
2022-08-08T04:51:28.160Z,11.45
2022-08-08T04:54:39.719Z,11.53
2022-08-08T04:56:59.976Z,11.58
2022-08-08T04:59:30.805Z,11.62
2022-08-08T05:02:00.973Z,11.65
2022-08-08T05:04:30.839Z,11.71
2022-08-08T05:07:00.321Z,11.80
2022-08-08T05:09:29.156Z,11.82
2022-08-08T05:11:58.196Z,11.93
2022-08-08T05:14:34.832Z,12.02
2022-08-08T05:17:09.022Z,12.12
2022-08-08T05:20:11.366Z,12.22
2022-08-08T05:22:36.363Z,12.31
2022-08-08T05:25:05.636Z,12.41
2022-08-08T05:27:41.757Z,12.50
2022-08-08T05:30:17.243Z,12.65
2022-08-08T05:32:59.427Z,12.77
2022-08-08T05:35:35.485Z,12.92
2022-08-08T05:38:32.069Z,13.07
2022-08-08T05:41:09.231Z,13.25
2022-08-08T05:44:03.946Z,13.43
2022-08-08T05:46:34.746Z,13.62
2022-08-08T05:49:11.108Z,13.80
2022-08-08T05:51:49.029Z,14.02
2022-08-08T05:54:27.654Z,14.28
2022-08-08T05:57:16.223Z,14.53
2022-08-08T06:00:25.211Z,14.77
2022-08-08T06:03:13.179Z,15.05
2022-08-08T06:05:56.520Z,15.29
2022-08-08T06:08:34.674Z,15.58
2022-08-08T06:11:08.212Z,15.86
2022-08-08T06:13:47.763Z,16.08
2022-08-08T06:16:27.474Z,16.27
2022-08-08T06:19:24.059Z,16.46
2022-08-08T06:21:57.106Z,16.69
2022-08-08T06:24:53.479Z,16.93
2022-08-08T06:27:33.251Z,17.13
2022-08-08T06:30:07.392Z,17.36
2022-08-08T06:32:47.612Z,17.54
2022-08-08T06:36:06.466Z,17.71
2022-08-08T06:38:14.847Z,17.86
2022-08-08T06:40:52.224Z,17.97
2022-08-08T06:43:33.703Z,18.13
2022-08-08T06:46:13.974Z,18.32
2022-08-08T06:48:48.030Z,18.55
2022-08-08T06:51:20.337Z,18.75
2022-08-08T06:53:55.966Z,18.96
2022-08-08T06:56:34.738Z,19.18
2022-08-08T06:59:09.724Z,19.40
2022-08-08T07:02:17.767Z,19.63
2022-08-08T07:04:47.957Z,19.82
2022-08-08T07:07:39.107Z,20.01
2022-08-08T07:10:13.096Z,20.13
2022-08-08T07:12:47.758Z,20.26
2022-08-08T07:16:03.878Z,20.41
2022-08-08T07:18:35.511Z,20.54
2022-08-08T07:21:18.943Z,20.62
2022-08-08T07:24:03.258Z,20.71
2022-08-08T07:26:43.084Z,20.80
2022-08-08T07:30:02.561Z,20.89
2022-08-08T07:32:17.165Z,20.99
2022-08-08T07:35:01.390Z,20.95
2022-08-08T07:37:55.710Z,20.92
2022-08-08T07:40:35.647Z,20.93
2022-08-08T07:43:12.556Z,20.98
2022-08-08T07:46:05.106Z,21.07
2022-08-08T07:48:38.857Z,21.25
2022-08-08T07:51:23.369Z,21.53
2022-08-08T07:54:05.666Z,21.88
2022-08-08T07:56:50.320Z,22.18
2022-08-08T07:59:23.672Z,22.40
2022-08-08T08:02:37.036Z,22.62
2022-08-08T08:04:52.297Z,22.86
2022-08-08T08:07:31.861Z,22.98
2022-08-08T08:10:05.313Z,22.92
2022-08-08T08:12:43.270Z,22.96
2022-08-08T08:15:21.537Z,22.94
2022-08-08T08:17:59.019Z,23.00
2022-08-08T08:20:31.058Z,23.12
2022-08-08T08:23:03.851Z,23.20
2022-08-08T08:25:43.556Z,23.06
2022-08-08T08:28:23.981Z,22.92
2022-08-08T08:30:58.645Z,22.87
2022-08-08T08:33:28.906Z,22.85
2022-08-08T08:36:19.339Z,22.94
2022-08-08T08:38:52.939Z,22.98
2022-08-08T08:41:31.252Z,23.06
2022-08-08T08:44:13.283Z,23.35
2022-08-08T08:46:47.272Z,23.64
2022-08-08T08:49:19.943Z,23.79
2022-08-08T08:51:54.101Z,23.75
2022-08-08T08:54:26.567Z,23.79
2022-08-08T08:57:03.963Z,23.86
2022-08-08T09:00:01.906Z,23.85
2022-08-08T09:02:41.060Z,23.80
2022-08-08T09:05:28.783Z,23.97
2022-08-08T09:08:12.718Z,24.05
2022-08-08T09:10:48.309Z,24.11
2022-08-08T09:13:25.281Z,24.22
2022-08-08T09:16:03.793Z,24.59
2022-08-08T09:18:36.487Z,24.99
2022-08-08T09:22:00.315Z,25.28
2022-08-08T09:23:56.858Z,25.49
2022-08-08T09:26:40.885Z,25.62
2022-08-08T09:29:25.401Z,25.66
2022-08-08T09:32:05.972Z,25.27
2022-08-08T09:34:51.682Z,24.88
2022-08-08T09:37:58.267Z,24.70
2022-08-08T09:40:35.874Z,24.73
2022-08-08T09:43:41.195Z,24.89
2022-08-08T09:46:25.843Z,25.03
2022-08-08T09:49:04.337Z,24.87
2022-08-08T09:52:06.486Z,24.79
2022-08-08T09:54:42.789Z,24.72
2022-08-08T09:57:17.145Z,24.97
2022-08-08T10:00:21.030Z,25.11
2022-08-08T10:02:45.087Z,24.83
2022-08-08T10:05:22.845Z,24.57
2022-08-08T10:08:00.361Z,24.32
2022-08-08T10:10:32.597Z,24.33
2022-08-08T10:13:14.177Z,24.54
2022-08-08T10:16:00.989Z,24.85
2022-08-08T10:18:33.729Z,24.88
2022-08-08T10:21:22.940Z,24.72
2022-08-08T10:23:58.829Z,24.71
2022-08-08T10:26:57.471Z,24.96
2022-08-08T10:29:44.122Z,24.94
2022-08-08T10:32:37.743Z,24.87
2022-08-08T10:36:09.584Z,24.81
2022-08-08T10:38:08.243Z,24.64
2022-08-08T10:40:39.795Z,24.57
2022-08-08T10:43:10.596Z,24.82
2022-08-08T10:45:57.236Z,24.82
2022-08-08T10:48:56.038Z,24.65
2022-08-08T10:51:26.264Z,24.74
2022-08-08T10:54:01.882Z,24.68
2022-08-08T10:56:35.627Z,24.62
2022-08-08T10:59:09.718Z,25.00
2022-08-08T11:01:40.285Z,25.66
2022-08-08T11:04:12.020Z,26.22
2022-08-08T11:06:42.040Z,26.63
2022-08-08T11:09:21.243Z,26.33
2022-08-08T11:12:06.526Z,25.82
2022-08-08T11:14:54.533Z,25.31
2022-08-08T11:17:59.907Z,25.48
2022-08-08T11:20:18.082Z,26.02
2022-08-08T11:22:49.498Z,26.41
2022-08-08T11:25:52.662Z,26.79
2022-08-08T11:28:29.416Z,26.97
2022-08-08T11:31:03.941Z,27.19
2022-08-08T11:33:53.386Z,27.32
2022-08-08T11:36:29.456Z,27.55
2022-08-08T11:38:59.984Z,27.82
2022-08-08T11:41:35.460Z,28.04
2022-08-08T11:44:08.477Z,28.31
2022-08-08T11:46:38.757Z,28.47
2022-08-08T11:49:11.603Z,28.57
2022-08-08T11:51:49.816Z,28.87
2022-08-08T11:54:46.213Z,29.04
2022-08-08T11:57:27.167Z,29.04
2022-08-08T12:00:02.547Z,28.95
2022-08-08T12:02:54.602Z,29.16
2022-08-08T12:05:34.140Z,28.98
2022-08-08T12:08:04.283Z,28.81
2022-08-08T12:10:34.498Z,28.32
2022-08-08T12:13:09.688Z,27.63
2022-08-08T12:15:50.980Z,27.22
2022-08-08T12:18:24.730Z,27.60
2022-08-08T12:20:58.949Z,28.03
2022-08-08T12:23:42.657Z,28.46
2022-08-08T12:26:27.779Z,28.87
2022-08-08T12:29:25.812Z,29.18
2022-08-08T12:32:13.378Z,29.48
2022-08-08T12:34:48.712Z,29.82
2022-08-08T12:37:22.049Z,29.49
2022-08-08T12:40:02.005Z,28.67
2022-08-08T12:42:33.694Z,27.71
2022-08-08T12:45:53.731Z,26.90
2022-08-08T12:48:09.782Z,26.53
2022-08-08T12:50:49.496Z,26.33
2022-08-08T12:53:28.423Z,26.56
2022-08-08T12:56:17.948Z,26.89
2022-08-08T12:58:50.941Z,27.15
2022-08-08T13:01:24.225Z,27.35
2022-08-08T13:04:19.287Z,27.80
2022-08-08T13:06:55.148Z,28.28
2022-08-08T13:09:43.336Z,28.73
2022-08-08T13:12:30.177Z,28.75
2022-08-08T13:15:02.401Z,28.17
2022-08-08T13:18:08.334Z,27.71
2022-08-08T13:20:27.097Z,26.97
2022-08-08T13:23:37.135Z,26.40
2022-08-08T13:25:50.987Z,26.30
2022-08-08T13:28:32.293Z,26.68
2022-08-08T13:31:03.876Z,27.15
2022-08-08T13:33:42.239Z,27.56
2022-08-08T13:36:12.533Z,27.97
2022-08-08T13:38:42.634Z,28.21
2022-08-08T13:41:15.918Z,28.32
2022-08-08T13:43:49.990Z,27.81
2022-08-08T13:46:26.633Z,27.25
2022-08-08T13:50:33.481Z,26.88
2022-08-08T13:52:01.271Z,26.42
2022-08-08T13:54:32.697Z,26.13
2022-08-08T13:57:04.881Z,25.81
2022-08-08T13:59:48.275Z,25.58
2022-08-08T14:02:21.210Z,25.58
2022-08-08T14:05:00.334Z,25.95
2022-08-08T14:07:42.243Z,26.42
2022-08-08T14:10:17.171Z,26.69
2022-08-08T14:12:47.970Z,26.91
2022-08-08T14:15:31.201Z,27.02
2022-08-08T14:18:35.510Z,27.24
2022-08-08T14:21:02.528Z,27.39
2022-08-08T14:24:07.480Z,27.39
2022-08-08T14:26:33.122Z,27.42
2022-08-08T14:29:06.133Z,27.49
2022-08-08T14:32:09.063Z,27.59
2022-08-08T14:34:38.899Z,27.70
2022-08-08T14:37:09.717Z,27.64
2022-08-08T14:39:48.259Z,27.60
2022-08-08T14:42:26.740Z,27.57
2022-08-08T14:44:58.325Z,27.39
2022-08-08T14:47:30.318Z,27.08
2022-08-08T14:50:15.187Z,26.65
2022-08-08T14:52:58.392Z,26.24
2022-08-08T14:55:41.485Z,26.15
2022-08-08T14:58:16.582Z,26.14
2022-08-08T15:00:50.265Z,26.22
2022-08-08T15:03:19.058Z,26.28
2022-08-08T15:05:54.775Z,26.35
2022-08-08T15:08:34.313Z,26.41
2022-08-08T15:11:10.242Z,26.52
2022-08-08T15:14:01.718Z,26.62
2022-08-08T15:16:34.442Z,26.62
2022-08-08T15:19:05.514Z,26.55
2022-08-08T15:21:37.985Z,26.58
2022-08-08T15:24:16.213Z,26.64
2022-08-08T15:26:52.471Z,26.87
2022-08-08T15:29:22.711Z,26.84
2022-08-08T15:32:19.079Z,26.74
2022-08-08T15:34:42.120Z,26.74
2022-08-08T15:37:10.840Z,26.70
2022-08-08T15:39:43.002Z,26.62
2022-08-08T15:42:18.050Z,26.48
2022-08-08T15:45:00.691Z,26.37
2022-08-08T15:47:31.418Z,26.32
2022-08-08T15:50:01.681Z,26.30
2022-08-08T15:52:33.037Z,26.26
2022-08-08T15:55:03.500Z,26.19
2022-08-08T15:57:35.726Z,26.06
2022-08-08T16:00:25.995Z,25.86
2022-08-08T16:02:59.010Z,25.67
2022-08-08T16:05:35.413Z,25.54
2022-08-08T16:08:08.502Z,25.48
2022-08-08T16:13:21.465Z,25.42
2022-08-08T16:13:42.010Z,25.30
2022-08-08T16:16:17.504Z,25.19
2022-08-08T16:18:56.573Z,25.09
2022-08-08T16:21:32.059Z,25.05
2022-08-08T16:24:02.661Z,24.96
2022-08-08T16:26:36.096Z,24.90
2022-08-08T16:29:07.687Z,24.85
2022-08-08T16:31:40.474Z,24.79
2022-08-08T16:34:09.420Z,24.76
2022-08-08T16:36:38.766Z,24.70
2022-08-08T16:39:28.011Z,24.61
2022-08-08T16:42:01.818Z,24.55
2022-08-08T16:44:33.624Z,24.51
2022-08-08T16:47:40.326Z,24.44
2022-08-08T16:50:14.011Z,24.37
2022-08-08T16:55:24.298Z,24.31
2022-08-08T16:55:55.368Z,24.26
2022-08-08T16:58:26.614Z,24.12
2022-08-08T17:00:57.859Z,24.25
2022-08-08T17:03:59.327Z,24.25
2022-08-08T17:06:36.982Z,24.19
2022-08-08T17:09:05.697Z,24.23
2022-08-08T17:11:54.535Z,24.19
2022-08-08T17:14:34.001Z,24.17
2022-08-08T17:17:04.447Z,24.07
2022-08-08T17:19:41.119Z,24.04
2022-08-08T17:22:10.999Z,24.06
2022-08-08T17:24:41.372Z,23.99
2022-08-08T17:27:10.572Z,23.98
2022-08-08T17:29:43.348Z,23.96
2022-08-08T17:32:12.660Z,23.97
2022-08-08T17:35:51.971Z,23.97
2022-08-08T17:37:32.827Z,23.92
2022-08-08T17:40:05.900Z,23.87
2022-08-08T17:42:46.979Z,23.77
2022-08-08T17:45:23.311Z,23.69
2022-08-08T17:47:56.262Z,23.57
2022-08-08T17:50:26.938Z,23.43
2022-08-08T17:52:56.471Z,23.32
2022-08-08T17:56:06.148Z,23.21
2022-08-08T17:58:18.265Z,23.13
2022-08-08T18:00:56.399Z,23.04
2022-08-08T18:03:26.862Z,22.96
2022-08-08T18:05:55.809Z,22.91
2022-08-08T18:08:38.704Z,22.83
2022-08-08T18:11:14.914Z,22.74
2022-08-08T18:13:47.124Z,22.72
2022-08-08T18:16:23.239Z,22.65
2022-08-08T18:18:56.239Z,22.59
2022-08-08T18:22:00.334Z,22.43
2022-08-08T18:24:19.414Z,22.35
2022-08-08T18:26:56.834Z,22.30
2022-08-08T18:29:29.813Z,22.26
2022-08-08T18:32:03.694Z,22.18
2022-08-08T18:34:37.767Z,22.11
2022-08-08T18:37:08.318Z,22.09
2022-08-08T18:39:41.370Z,22.03
2022-08-08T18:42:16.437Z,21.99
2022-08-08T18:44:53.062Z,21.91
2022-08-08T18:47:28.537Z,21.85
2022-08-08T18:50:03.031Z,21.82
2022-08-08T18:52:34.762Z,21.78
2022-08-08T18:55:09.708Z,21.73
2022-08-08T18:57:44.545Z,21.67
2022-08-08T19:00:19.627Z,21.61
2022-08-08T19:02:57.083Z,21.48
2022-08-08T19:05:30.163Z,21.37
2022-08-08T19:08:01.053Z,21.33
2022-08-08T19:10:31.567Z,21.31
2022-08-08T19:13:00.347Z,21.23
2022-08-08T19:15:34.218Z,21.16
2022-08-08T19:18:32.283Z,21.08
2022-08-08T19:20:56.827Z,21.03
2022-08-08T19:23:26.091Z,20.96
2022-08-08T19:26:26.975Z,20.89
2022-08-08T19:28:45.412Z,20.86
2022-08-08T19:31:17.031Z,20.80
2022-08-08T19:34:04.761Z,20.74
2022-08-08T19:36:37.403Z,20.62
2022-08-08T19:39:09.438Z,20.62
2022-08-08T19:41:38.752Z,20.60
2022-08-08T19:44:12.897Z,20.61
2022-08-08T19:46:56.696Z,20.59
2022-08-08T19:49:26.780Z,20.53
2022-08-08T19:51:55.379Z,20.45
2022-08-08T19:54:24.552Z,20.41
2022-08-08T19:56:53.174Z,20.37
2022-08-08T19:59:22.821Z,20.29
2022-08-08T20:02:02.615Z,20.29
2022-08-08T20:04:34.228Z,20.21
2022-08-08T20:08:30.079Z,20.14
2022-08-08T20:09:56.293Z,20.12
2022-08-08T20:12:31.983Z,20.07
2022-08-08T20:15:14.881Z,19.99
2022-08-08T20:17:48.514Z,19.85
2022-08-08T20:20:22.236Z,19.78
2022-08-08T20:22:53.806Z,19.69
2022-08-08T20:25:29.786Z,19.67
2022-08-08T20:28:06.488Z,19.63
2022-08-08T20:30:55.685Z,19.59
2022-08-08T20:35:58.029Z,19.53
2022-08-08T20:38:32.545Z,19.45
2022-08-08T20:41:05.627Z,19.35
2022-08-08T20:43:49.312Z,19.30
2022-08-08T20:46:25.782Z,19.24
2022-08-08T20:48:58.503Z,19.11
2022-08-08T20:51:32.647Z,19.08
2022-08-08T20:54:14.037Z,19.06
2022-08-08T20:57:04.583Z,19.00
2022-08-08T20:59:41.456Z,18.96
2022-08-08T21:02:12.438Z,18.94
2022-08-08T21:04:43.903Z,18.89
2022-08-08T21:07:46.860Z,18.84
2022-08-08T21:10:12.623Z,18.84
2022-08-08T21:12:44.680Z,18.83
2022-08-08T21:15:16.449Z,18.77
2022-08-08T21:18:07.051Z,18.73
2022-08-08T21:20:36.015Z,18.71
2022-08-08T21:23:09.972Z,18.68
2022-08-08T21:25:42.454Z,18.68
2022-08-08T21:28:16.177Z,18.65
2022-08-08T21:30:49.641Z,18.58
2022-08-08T21:33:21.392Z,18.57
2022-08-08T21:36:17.423Z,18.55
2022-08-08T21:38:40.456Z,18.53
2022-08-08T21:41:09.266Z,18.46
2022-08-08T21:43:58.353Z,18.44
2022-08-08T21:48:07.613Z,18.42
2022-08-08T21:49:19.546Z,18.39
2022-08-08T21:54:33.711Z,18.34
2022-08-08T21:55:02.621Z,18.29
2022-08-08T21:57:41.966Z,18.26
2022-08-08T22:00:14.166Z,18.22
2022-08-08T22:02:48.715Z,18.21
2022-08-08T22:05:18.297Z,18.14
2022-08-08T22:07:49.016Z,18.12
2022-08-08T22:10:32.152Z,18.08
2022-08-08T22:13:17.168Z,18.02
2022-08-08T22:15:58.383Z,17.98
2022-08-08T22:18:31.446Z,17.96
2022-08-08T22:21:14.172Z,17.91
2022-08-08T22:23:50.704Z,17.83
2022-08-08T22:26:29.928Z,17.77
2022-08-08T22:29:13.426Z,17.74
2022-08-08T22:31:58.198Z,17.70
2022-08-08T22:34:32.061Z,17.66
2022-08-08T22:37:00.947Z,17.57
2022-08-08T22:39:45.507Z,17.56
2022-08-08T22:42:24.166Z,17.56
2022-08-08T22:44:56.965Z,17.53
2022-08-08T22:47:38.386Z,17.53
2022-08-08T22:50:26.411Z,17.41
2022-08-08T22:54:19.569Z,17.32
2022-08-08T22:55:59.787Z,17.23
2022-08-08T22:58:34.714Z,17.11
2022-08-08T23:01:26.702Z,16.99
2022-08-08T23:03:55.603Z,16.85
2022-08-08T23:06:25.485Z,16.73
2022-08-08T23:08:58.351Z,16.63
2022-08-08T23:11:30.870Z,16.52
2022-08-08T23:14:21.092Z,16.44
2022-08-08T23:16:59.117Z,16.36
2022-08-08T23:19:31.093Z,16.26
2022-08-08T23:22:04.202Z,16.24
2022-08-08T23:24:36.170Z,16.21
2022-08-08T23:27:05.906Z,16.17
2022-08-08T23:29:35.784Z,16.11
2022-08-08T23:32:06.719Z,16.06
2022-08-08T23:34:39.758Z,15.95
2022-08-08T23:37:24.643Z,15.82
2022-08-08T23:39:55.322Z,15.73
2022-08-08T23:42:29.416Z,15.68
2022-08-08T23:45:00.220Z,15.60
2022-08-08T23:49:00.079Z,15.52
2022-08-08T23:50:30.498Z,15.47
2022-08-08T23:53:03.509Z,15.38
2022-08-08T23:55:38.282Z,15.27
2022-08-08T23:58:31.936Z,15.15
